createdAt,value
2023-11-05T01:10:06.656Z,95584.72
2023-11-05T01:12:11.148Z,95581.69
2023-11-05T01:14:14.191Z,95573.31
2023-11-05T01:16:18.391Z,95585.88
2023-11-05T01:18:22.087Z,95575.19
2023-11-05T01:20:25.349Z,95576.75
2023-11-05T01:22:27.339Z,95575.22
2023-11-05T01:24:30.344Z,95577.50
2023-11-05T01:26:33.534Z,95563.78
2023-11-05T01:28:38.020Z,95551.16
2023-11-05T01:30:43.583Z,95552.28
2023-11-05T01:32:47.593Z,95543.94
2023-11-05T01:34:50.585Z,95529.09
2023-11-05T01:36:55.811Z,95538.25
2023-11-05T01:38:58.789Z,95523.38
2023-11-05T01:41:01.808Z,95534.41
2023-11-05T01:43:04.882Z,95532.91
2023-11-05T01:45:11.143Z,95525.28
2023-11-05T01:47:12.961Z,95524.50
2023-11-05T01:49:16.177Z,95525.66
2023-11-05T01:51:19.356Z,95520.69
2023-11-05T01:53:22.525Z,95508.03
2023-11-05T01:55:26.556Z,95507.31
2023-11-05T01:57:29.637Z,95506.44
2023-11-05T01:59:32.678Z,95507.59
2023-11-05T02:01:37.385Z,95497.47
2023-11-05T02:03:40.990Z,95492.47
2023-11-05T02:05:44.657Z,95491.97
2023-11-05T02:07:47.646Z,95492.81
2023-11-05T02:09:50.707Z,95481.78
2023-11-05T02:11:53.758Z,95475.72
2023-11-05T02:13:58.417Z,95474.19
2023-11-05T02:16:01.539Z,95474.63
2023-11-05T02:18:06.042Z,95475.00
2023-11-05T04:44:00.140Z,95459.69
2023-11-05T04:46:02.102Z,95461.97
2023-11-05T04:48:05.557Z,95458.13
2023-11-05T04:50:08.558Z,95456.25
2023-11-05T04:52:11.451Z,95444.28
2023-11-05T04:54:14.433Z,95440.50
2023-11-05T04:56:17.655Z,95448.09
2023-11-05T04:58:20.588Z,95435.06
2023-11-05T05:00:25.202Z,95436.13
2023-11-05T05:02:28.042Z,95440.69
2023-11-05T05:04:30.933Z,95442.31
2023-11-05T05:06:33.894Z,95443.56
2023-11-05T05:08:36.909Z,95442.03
2023-11-05T05:10:39.708Z,95440.56
2023-11-05T05:12:42.688Z,95436.75
2023-11-05T05:14:45.720Z,95448.16
2023-11-05T05:16:50.268Z,95442.47
2023-11-05T05:18:53.166Z,95447.91
2023-11-05T05:20:56.158Z,95455.53
2023-11-05T05:22:59.068Z,95453.66
2023-11-05T05:25:01.259Z,95457.03
2023-11-05T05:27:04.491Z,95458.19
2023-11-05T05:29:07.576Z,95458.56
2023-11-05T05:31:10.482Z,95448.59
2023-11-05T05:33:14.887Z,95451.56
2023-11-05T05:35:17.928Z,95460.19
2023-11-05T05:37:21.051Z,95457.13
2023-11-05T05:39:24.185Z,95456.78
2023-11-05T05:41:27.197Z,95457.50
2023-11-05T05:43:30.594Z,95459.31
2023-11-05T05:45:33.563Z,95458.94
2023-11-05T05:47:37.032Z,95459.34
2023-11-05T05:49:41.355Z,95465.78
2023-11-05T05:51:44.404Z,95464.25
2023-11-05T05:53:47.388Z,95469.28
2023-11-05T05:55:50.305Z,95466.44
2023-11-05T05:57:53.302Z,95467.59
2023-11-05T05:59:56.098Z,95473.31
2023-11-05T06:01:59.080Z,95470.22
2023-11-05T06:04:02.597Z,95476.59
2023-11-05T06:06:08.310Z,95468.69
2023-11-05T06:08:11.256Z,95469.88
2023-11-05T06:10:14.274Z,95472.59
2023-11-05T06:12:17.216Z,95476.44
2023-11-05T06:14:26.820Z,95474.47
2023-11-05T06:16:35.742Z,95482.06
2023-11-05T06:18:39.251Z,95478.72
2023-11-05T06:20:42.442Z,95473.63
2023-11-05T06:22:46.810Z,95474.78
2023-11-05T06:24:49.662Z,95482.34
2023-11-05T06:26:52.659Z,95478.63
2023-11-05T06:28:57.254Z,95483.28
2023-11-05T06:31:00.095Z,95481.38
2023-11-05T06:33:03.203Z,95478.66
2023-11-05T06:35:06.620Z,95477.84
2023-11-05T06:37:09.642Z,95480.44
2023-11-05T06:39:14.026Z,95486.25
2023-11-05T06:41:16.049Z,95483.97
2023-11-05T06:43:19.209Z,95500.00
2023-11-05T06:45:23.710Z,95505.72
2023-11-05T06:47:26.694Z,95513.25
2023-11-05T06:49:29.649Z,95504.03
2023-11-05T06:51:31.605Z,95513.91
2023-11-05T06:53:34.492Z,95515.91
2023-11-05T06:55:38.948Z,95523.16
2023-11-05T06:57:41.911Z,95515.25
2023-11-05T06:59:43.924Z,95515.31
2023-11-05T08:11:36.425Z,95671.59
2023-11-05T08:13:39.439Z,95667.94
2023-11-05T08:15:42.294Z,95678.41
2023-11-05T08:17:44.322Z,95683.00
2023-11-05T08:19:47.794Z,95677.94
2023-11-05T08:21:50.830Z,95697.38
2023-11-05T08:23:53.725Z,95692.16
2023-11-05T08:25:57.324Z,95699.31
2023-11-05T08:28:09.761Z,95697.13
2023-11-05T08:30:19.851Z,95702.38
2023-11-05T08:32:22.701Z,95713.94
2023-11-05T08:34:25.613Z,95716.38
2023-11-05T08:36:28.711Z,95721.50
2023-11-05T08:38:31.539Z,95729.31
2023-11-05T08:40:34.504Z,95736.78
2023-11-05T08:42:38.081Z,95742.56
2023-11-05T08:44:44.166Z,95747.78
2023-11-05T08:46:47.480Z,95748.03
2023-11-05T08:48:50.520Z,95748.53
2023-11-05T08:50:53.472Z,95762.31
2023-11-05T08:52:56.575Z,95753.34
2023-11-05T08:55:00.743Z,95757.16
2023-11-05T08:57:04.180Z,95750.69
2023-11-05T08:59:07.447Z,95770.53
2023-11-05T09:01:11.763Z,95769.38
2023-11-05T09:03:15.207Z,95770.91
2023-11-05T09:05:18.179Z,95771.69
2023-11-05T09:07:21.332Z,95783.88
2023-11-05T09:09:24.756Z,95786.56
2023-11-05T09:11:27.927Z,95792.66
2023-11-05T09:13:30.856Z,95794.56
2023-11-05T09:15:33.781Z,95790.00
2023-11-05T09:17:37.177Z,95794.72
2023-11-05T09:19:41.830Z,95805.09
2023-11-05T09:21:46.737Z,95795.72
2023-11-05T09:23:49.720Z,95802.97
2023-11-05T09:25:52.872Z,95815.19
2023-11-05T09:27:56.405Z,95811.75
2023-11-05T09:30:02.342Z,95825.72
2023-11-05T09:32:05.412Z,95829.03
2023-11-05T09:34:10.070Z,95845.72
2023-11-05T09:36:15.803Z,95848.16
2023-11-05T09:38:20.049Z,95845.53
2023-11-05T09:40:55.598Z,95860.47
2023-11-05T09:43:03.278Z,95863.00
2023-11-05T09:45:08.835Z,95855.59
2023-11-05T09:47:14.093Z,95862.06
2023-11-05T09:49:18.962Z,95867.47
2023-11-05T09:51:25.192Z,95876.63
2023-11-05T09:53:31.261Z,95878.31
2023-11-05T09:55:34.235Z,95883.66
2023-11-05T09:57:37.924Z,95888.03
2023-11-05T09:59:48.480Z,95885.16
2023-11-05T10:01:56.312Z,95894.47
2023-11-05T10:03:59.891Z,95898.13
2023-11-05T10:06:11.043Z,95910.25
2023-11-05T10:08:17.914Z,95909.34
2023-11-05T10:10:22.499Z,95912.56
2023-11-05T10:12:30.576Z,95924.00
2023-11-05T10:14:37.153Z,95927.44
2023-11-05T10:16:40.117Z,95930.81
2023-11-05T10:18:45.363Z,95940.94
2023-11-05T10:20:53.860Z,95955.34
2023-11-05T10:23:06.019Z,95960.09
2023-11-05T10:25:09.858Z,95966.66
2023-11-05T10:27:13.445Z,95978.53
2023-11-05T10:29:19.197Z,95985.28
2023-11-05T11:07:21.726Z,96068.94
2023-11-05T11:10:19.774Z,96081.41
2023-11-05T11:19:07.412Z,96095.66
2023-11-05T11:21:57.294Z,96104.91
2023-11-05T11:33:05.176Z,96124.31
2023-11-05T11:51:14.698Z,96154.72
2023-11-05T11:53:26.581Z,96168.19
2023-11-05T11:55:30.624Z,96175.28
2023-11-05T11:57:37.166Z,96181.88
2023-11-05T11:59:40.834Z,96189.91
2023-11-05T12:01:45.423Z,96202.91
2023-11-05T12:03:48.838Z,96197.56
2023-11-05T12:05:51.406Z,96203.94
2023-11-05T12:07:55.913Z,96213.16
2023-11-05T12:10:00.285Z,96220.22
2023-11-05T12:12:04.704Z,96226.31
2023-11-05T12:14:08.095Z,96231.63
2023-11-05T12:16:12.468Z,96245.56
2023-11-05T12:18:16.049Z,96254.63
2023-11-05T12:20:19.474Z,96280.44
2023-11-05T12:22:23.884Z,96280.03
2023-11-05T12:24:30.190Z,96293.31
2023-11-05T12:26:32.196Z,96314.84
2023-11-05T12:28:35.240Z,96307.44
2023-11-05T12:30:37.261Z,96314.06
2023-11-05T12:32:41.636Z,96316.66
2023-11-05T12:34:49.321Z,96310.97
2023-11-05T12:36:52.465Z,96328.63
2023-11-05T12:38:55.325Z,96331.53
2023-11-05T12:41:00.624Z,96325.34
2023-11-05T12:43:03.886Z,96340.41
2023-11-05T12:45:10.896Z,96323.91
2023-11-05T12:47:13.981Z,96319.81
2023-11-05T12:49:17.095Z,96334.25
2023-11-05T12:51:23.492Z,96333.53
2023-11-05T12:53:27.493Z,96358.31
2023-11-05T13:01:37.358Z,96380.72
2023-11-05T13:03:47.617Z,96380.94
2023-11-05T13:05:52.149Z,96386.81
2023-11-05T13:08:03.350Z,96390.41
2023-11-05T13:10:36.099Z,96392.50
2023-11-05T13:18:45.861Z,96411.94
2023-11-05T13:20:57.019Z,96420.41
2023-11-05T13:23:20.170Z,96433.41
2023-11-05T13:25:23.561Z,96456.44
2023-11-05T13:30:01.200Z,96451.47
2023-11-05T13:32:14.118Z,96463.28
2023-11-05T13:34:39.512Z,96488.13
2023-11-05T13:50:16.971Z,96525.53
2023-11-05T13:52:54.020Z,96538.28
2023-11-05T13:55:59.778Z,96550.53
2023-11-05T13:58:36.567Z,96555.56
2023-11-05T14:00:55.617Z,96570.00
2023-11-05T14:12:33.398Z,96596.16
2023-11-05T14:15:13.149Z,96596.66
2023-11-05T14:18:10.935Z,96618.72
2023-11-05T14:21:03.842Z,96618.34
2023-11-05T14:23:15.668Z,96636.28
2023-11-05T14:25:54.525Z,96651.03
2023-11-05T14:28:27.283Z,96666.00
2023-11-05T14:30:33.743Z,96663.06
2023-11-05T14:33:06.689Z,96688.59
2023-11-05T14:35:49.782Z,96680.41
2023-11-05T14:38:17.495Z,96689.91
2023-11-05T14:43:16.897Z,96709.97
2023-11-05T14:45:47.880Z,96714.47
2023-11-05T14:48:38.254Z,96713.88
2023-11-05T14:54:42.984Z,96739.59
2023-11-05T14:57:28.613Z,96739.00
2023-11-05T14:59:58.550Z,96761.00
2023-11-05T15:05:10.611Z,96772.88
2023-11-05T15:14:39.583Z,96809.94
2023-11-05T15:17:28.944Z,96815.09
2023-11-05T15:19:56.170Z,96820.91
2023-11-05T17:03:10.262Z,97136.75
2023-11-05T17:10:43.208Z,97148.34
2023-11-05T17:13:25.151Z,97151.25
2023-11-05T17:16:10.354Z,97157.06
2023-11-05T17:18:24.155Z,97166.19
2023-11-05T17:20:44.342Z,97167.78
2023-11-05T17:22:55.877Z,97180.91
2023-11-05T17:25:47.455Z,97175.69
2023-11-05T17:31:30.748Z,97204.81
2023-11-05T17:33:40.243Z,97209.16
2023-11-05T17:38:55.482Z,97233.47
2023-11-05T17:41:12.625Z,97238.09
2023-11-05T17:46:52.046Z,97251.66
2023-11-05T17:49:02.573Z,97252.25
2023-11-05T17:51:48.884Z,97261.84
2023-11-05T17:56:33.877Z,97270.84
2023-11-05T17:59:04.405Z,97267.28
2023-11-05T18:03:56.429Z,97285.06
2023-11-05T18:06:10.573Z,97292.16
2023-11-05T18:08:38.011Z,97294.13
2023-11-05T18:10:53.305Z,97298.31
2023-11-05T18:13:30.025Z,97305.97
2023-11-05T18:15:52.349Z,97299.09
2023-11-05T18:17:59.503Z,97309.41
2023-11-05T18:20:08.216Z,97306.75
2023-11-05T18:22:34.624Z,97309.72
2023-11-05T18:24:51.623Z,97319.09
2023-11-05T18:32:26.198Z,97325.34
2023-11-05T18:35:06.621Z,97325.88
2023-11-05T18:37:46.255Z,97320.88
2023-11-05T18:39:54.744Z,97318.22
2023-11-05T18:42:17.510Z,97337.78
2023-11-05T18:44:37.663Z,97327.16
2023-11-05T18:47:08.748Z,97334.56
2023-11-05T18:49:15.240Z,97335.72
2023-11-05T18:51:21.987Z,97340.53
2023-11-05T18:53:26.767Z,97345.31
2023-11-05T18:55:34.050Z,97348.63
2023-11-05T18:57:38.007Z,97348.94
2023-11-05T18:59:59.138Z,97356.94
2023-11-05T19:02:05.363Z,97355.22
2023-11-05T19:04:11.722Z,97359.97
2023-11-05T19:06:18.898Z,97359.31
2023-11-05T19:08:25.037Z,97359.88
2023-11-05T19:10:34.698Z,97367.88
2023-11-05T19:12:37.638Z,97383.88
2023-11-05T19:14:44.402Z,97386.69
2023-11-05T19:16:48.383Z,97383.53
2023-11-05T19:18:55.571Z,97381.03
2023-11-05T19:20:58.445Z,97384.63
2023-11-05T19:23:01.223Z,97400.41
2023-11-05T19:25:15.395Z,97392.72
2023-11-05T19:27:18.398Z,97405.16
2023-11-05T19:29:29.451Z,97410.78
2023-11-05T19:31:36.137Z,97413.16
2023-11-05T19:33:55.134Z,97419.38
2023-11-05T19:35:58.559Z,97420.72
2023-11-05T19:38:08.940Z,97426.50
2023-11-05T19:40:17.550Z,97429.78
2023-11-05T19:42:34.227Z,97436.31
2023-11-05T19:44:40.785Z,97441.94
2023-11-05T19:46:53.370Z,97449.00
2023-11-05T19:49:08.276Z,97455.69
2023-11-05T19:51:16.105Z,97473.19
2023-11-05T19:53:37.987Z,97467.41
2023-11-05T19:55:46.799Z,97488.66
2023-11-05T19:58:03.942Z,97491.47
2023-11-05T20:00:10.806Z,97492.41
2023-11-05T20:02:22.344Z,97494.41
2023-11-05T20:04:29.990Z,97509.28
2023-11-05T20:07:46.717Z,97514.41
2023-11-05T20:11:14.419Z,97526.59
2023-11-05T20:14:06.576Z,97526.72
2023-11-05T20:16:13.142Z,97525.50
2023-11-05T20:18:22.882Z,97528.94
2023-11-05T20:20:43.765Z,97534.13
2023-11-05T20:23:02.756Z,97540.97
2023-11-05T20:25:23.987Z,97543.66
2023-11-05T20:27:44.653Z,97548.47
2023-11-05T20:30:04.714Z,97551.47
2023-11-05T20:32:11.903Z,97550.19
2023-11-05T20:34:32.501Z,97562.53
2023-11-05T20:37:13.585Z,97559.41
2023-11-05T20:39:45.023Z,97577.72
2023-11-05T20:42:11.161Z,97586.44
2023-11-05T20:44:38.281Z,97590.66
2023-11-05T20:49:25.088Z,97606.91
2023-11-05T20:51:30.230Z,97600.66
2023-11-05T20:53:48.653Z,97616.63
2023-11-05T20:56:17.773Z,97616.44
2023-11-05T20:58:28.409Z,97620.69
2023-11-05T21:00:41.281Z,97622.41
2023-11-05T21:02:54.646Z,97619.28
2023-11-05T21:05:09.629Z,97625.69
2023-11-05T21:07:46.849Z,97639.75
2023-11-05T21:10:46.062Z,97631.78
2023-11-05T21:13:09.899Z,97642.25
2023-11-05T21:17:54.946Z,97641.47
2023-11-05T21:20:47.298Z,97651.34
2023-11-05T21:23:13.831Z,97646.44
2023-11-05T21:28:07.814Z,97654.09
2023-11-05T21:31:05.404Z,97641.00
2023-11-05T21:33:42.479Z,97650.03
2023-11-05T21:35:55.784Z,97653.47
2023-11-05T21:38:38.460Z,97657.72
2023-11-05T21:41:51.110Z,97665.22
2023-11-05T21:43:52.390Z,97667.84
2023-11-05T21:46:09.892Z,97675.56
2023-11-05T21:48:30.545Z,97678.22
2023-11-05T21:50:57.375Z,97678.53
2023-11-05T21:53:11.985Z,97678.50
2023-11-05T21:55:48.194Z,97682.59
2023-11-05T21:57:56.809Z,97691.97
2023-11-05T22:00:00.232Z,97684.00
2023-11-05T22:02:13.308Z,97681.75
2023-11-05T22:04:16.829Z,97686.91
2023-11-05T22:06:30.813Z,97683.06
2023-11-05T22:08:52.287Z,97698.38
2023-11-05T22:11:01.681Z,97692.91
2023-11-05T22:13:25.676Z,97693.56
2023-11-05T22:15:31.907Z,97698.06
2023-11-05T22:18:10.464Z,97688.56
2023-11-05T22:23:32.158Z,97704.88
2023-11-05T22:25:41.607Z,97710.56
2023-11-05T22:28:00.988Z,97713.34
2023-11-05T22:39:11.550Z,97720.16
2023-11-05T22:41:42.351Z,97726.41
2023-11-05T22:47:13.357Z,97721.25
2023-11-05T22:50:07.680Z,97721.03
2023-11-05T22:55:51.705Z,97742.09
2023-11-05T22:58:03.835Z,97745.66
2023-11-05T23:02:53.811Z,97754.81
2023-11-05T23:04:56.805Z,97756.16
2023-11-05T23:07:00.224Z,97754.75
2023-11-05T23:09:02.319Z,97759.06
2023-11-05T23:11:06.097Z,97765.03
2023-11-05T23:13:11.132Z,97762.09
2023-11-05T23:15:13.771Z,97759.09
2023-11-05T23:17:24.041Z,97762.00
2023-11-05T23:19:27.270Z,97763.19
2023-11-05T23:21:29.644Z,97767.63
2023-11-05T23:23:33.426Z,97768.28
2023-11-05T23:25:50.474Z,97770.38
2023-11-05T23:28:07.467Z,97774.59
2023-11-05T23:30:14.486Z,97780.00
2023-11-05T23:32:20.102Z,97780.00
2023-11-05T23:34:28.687Z,97777.91
2023-11-05T23:36:37.298Z,97779.34
2023-11-05T23:38:41.431Z,97785.84
2023-11-05T23:41:07.195Z,97785.59
2023-11-05T23:43:30.052Z,97785.53
2023-11-05T23:45:40.168Z,97779.16
2023-11-05T23:47:43.159Z,97777.91
2023-11-05T23:49:58.880Z,97772.63
2023-11-05T23:52:05.072Z,97781.81
2023-11-05T23:54:08.908Z,97785.72
2023-11-05T23:56:21.417Z,97788.19
2023-11-05T23:58:30.300Z,97792.09
